sensor_id;sensor_type;location;lat;lon;timestamp;P1;durP1;ratioP1;P2;durP2;ratioP2
52768;SDS011;40471;44.534;18.644;2024-02-21T00:01:39;169.77;;;99.17;;
52768;SDS011;40471;44.534;18.644;2024-02-21T00:04:05;167.33;;;98.60;;
52768;SDS011;40471;44.534;18.644;2024-02-21T00:06:31;172.77;;;96.53;;
52768;SDS011;40471;44.534;18.644;2024-02-21T00:08:57;182.02;;;100.28;;
52768;SDS011;40471;44.534;18.644;2024-02-21T00:11:23;185.13;;;98.13;;
52768;SDS011;40471;44.534;18.644;2024-02-21T00:13:49;195.38;;;100.80;;
52768;SDS011;40471;44.534;18.644;2024-02-21T00:16:17;164.88;;;81.75;;
52768;SDS011;40471;44.534;18.644;2024-02-21T00:18:43;143.67;;;80.10;;
52768;SDS011;40471;44.534;18.644;2024-02-21T00:21:09;178.25;;;92.63;;
52768;SDS011;40471;44.534;18.644;2024-02-21T00:23:40;169.02;;;92.18;;
52768;SDS011;40471;44.534;18.644;2024-02-21T00:26:06;177.30;;;102.82;;
52768;SDS011;40471;44.534;18.644;2024-02-21T00:28:32;175.93;;;102.25;;
52768;SDS011;40471;44.534;18.644;2024-02-21T00:30:58;188.50;;;103.77;;
52768;SDS011;40471;44.534;18.644;2024-02-21T00:33:24;178.43;;;100.13;;
52768;SDS011;40471;44.534;18.644;2024-02-21T00:35:49;158.17;;;88.40;;
52768;SDS011;40471;44.534;18.644;2024-02-21T00:38:15;161.27;;;92.47;;
52768;SDS011;40471;44.534;18.644;2024-02-21T00:40:41;147.87;;;83.73;;
52768;SDS011;40471;44.534;18.644;2024-02-21T00:43:07;155.43;;;83.35;;
52768;SDS011;40471;44.534;18.644;2024-02-21T00:45:33;128.77;;;72.60;;
52768;SDS011;40471;44.534;18.644;2024-02-21T00:47:58;138.87;;;73.33;;
52768;SDS011;40471;44.534;18.644;2024-02-21T00:50:24;128.03;;;72.20;;
52768;SDS011;40471;44.534;18.644;2024-02-21T00:52:50;125.90;;;76.60;;
52768;SDS011;40471;44.534;18.644;2024-02-21T00:55:15;128.80;;;77.50;;
52768;SDS011;40471;44.534;18.644;2024-02-21T00:57:41;119.17;;;68.60;;
52768;SDS011;40471;44.534;18.644;2024-02-21T01:00:07;103.03;;;65.80;;
52768;SDS011;40471;44.534;18.644;2024-02-21T01:02:33;110.05;;;63.92;;
52768;SDS011;40471;44.534;18.644;2024-02-21T01:04:59;119.68;;;75.68;;
52768;SDS011;40471;44.534;18.644;2024-02-21T01:07:25;109.43;;;65.63;;
52768;SDS011;40471;44.534;18.644;2024-02-21T01:09:51;114.60;;;70.53;;
52768;SDS011;40471;44.534;18.644;2024-02-21T01:12:17;138.55;;;77.03;;
52768;SDS011;40471;44.534;18.644;2024-02-21T01:14:44;140.90;;;75.90;;
52768;SDS011;40471;44.534;18.644;2024-02-21T01:17:11;117.10;;;68.63;;
52768;SDS011;40471;44.534;18.644;2024-02-21T01:19:37;111.28;;;64.13;;
52768;SDS011;40471;44.534;18.644;2024-02-21T01:22:03;113.85;;;70.85;;
52768;SDS011;40471;44.534;18.644;2024-02-21T01:24:29;101.82;;;62.13;;
52768;SDS011;40471;44.534;18.644;2024-02-21T01:26:55;111.07;;;68.40;;
52768;SDS011;40471;44.534;18.644;2024-02-21T01:31:47;107.75;;;68.50;;
52768;SDS011;40471;44.534;18.644;2024-02-21T01:34:13;111.27;;;61.33;;
52768;SDS011;40471;44.534;18.644;2024-02-21T01:36:39;111.83;;;64.53;;
52768;SDS011;40471;44.534;18.644;2024-02-21T01:39:06;125.47;;;68.45;;
52768;SDS011;40471;44.534;18.644;2024-02-21T01:41:32;124.37;;;72.43;;
52768;SDS011;40471;44.534;18.644;2024-02-21T01:43:57;193.00;;;109.93;;
52768;SDS011;40471;44.534;18.644;2024-02-21T01:46:24;161.50;;;92.93;;
52768;SDS011;40471;44.534;18.644;2024-02-21T01:48:59;139.05;;;78.00;;
52768;SDS011;40471;44.534;18.644;2024-02-21T01:51:25;112.10;;;71.60;;
52768;SDS011;40471;44.534;18.644;2024-02-21T01:53:52;126.50;;;73.97;;
52768;SDS011;40471;44.534;18.644;2024-02-21T01:56:20;121.70;;;75.22;;
52768;SDS011;40471;44.534;18.644;2024-02-21T01:58:47;130.90;;;79.95;;
52768;SDS011;40471;44.534;18.644;2024-02-21T02:01:14;132.95;;;74.65;;
52768;SDS011;40471;44.534;18.644;2024-02-21T02:03:39;126.23;;;74.37;;
52768;SDS011;40471;44.534;18.644;2024-02-21T02:06:06;113.88;;;68.03;;
52768;SDS011;40471;44.534;18.644;2024-02-21T02:08:31;109.67;;;67.20;;
52768;SDS011;40471;44.534;18.644;2024-02-21T02:10:58;117.75;;;66.35;;
52768;SDS011;40471;44.534;18.644;2024-02-21T02:13:24;114.53;;;67.55;;
52768;SDS011;40471;44.534;18.644;2024-02-21T02:15:50;113.80;;;66.77;;
52768;SDS011;40471;44.534;18.644;2024-02-21T02:18:17;112.00;;;64.87;;
52768;SDS011;40471;44.534;18.644;2024-02-21T02:20:44;118.90;;;66.05;;
52768;SDS011;40471;44.534;18.644;2024-02-21T02:23:25;114.80;;;68.80;;
52768;SDS011;40471;44.534;18.644;2024-02-21T02:25:54;110.05;;;70.25;;
52768;SDS011;40471;44.534;18.644;2024-02-21T02:28:21;95.07;;;62.25;;
52768;SDS011;40471;44.534;18.644;2024-02-21T02:30:47;89.90;;;57.45;;
52768;SDS011;40471;44.534;18.644;2024-02-21T02:33:13;91.70;;;55.00;;
52768;SDS011;40471;44.534;18.644;2024-02-21T02:35:39;97.00;;;60.97;;
52768;SDS011;40471;44.534;18.644;2024-02-21T02:38:05;98.63;;;58.83;;
52768;SDS011;40471;44.534;18.644;2024-02-21T02:40:33;108.35;;;64.03;;
52768;SDS011;40471;44.534;18.644;2024-02-21T02:42:59;120.28;;;67.50;;
52768;SDS011;40471;44.534;18.644;2024-02-21T02:45:25;107.77;;;70.67;;
52768;SDS011;40471;44.534;18.644;2024-02-21T02:47:53;125.45;;;66.35;;
52768;SDS011;40471;44.534;18.644;2024-02-21T02:50:20;106.55;;;70.25;;
52768;SDS011;40471;44.534;18.644;2024-02-21T02:52:46;103.77;;;66.97;;
52768;SDS011;40471;44.534;18.644;2024-02-21T02:55:11;115.07;;;65.37;;
52768;SDS011;40471;44.534;18.644;2024-02-21T02:57:37;95.47;;;58.83;;
52768;SDS011;40471;44.534;18.644;2024-02-21T03:00:03;91.17;;;63.03;;
52768;SDS011;40471;44.534;18.644;2024-02-21T03:02:31;117.97;;;63.15;;
52768;SDS011;40471;44.534;18.644;2024-02-21T03:05:00;95.30;;;63.78;;
52768;SDS011;40471;44.534;18.644;2024-02-21T03:07:25;86.00;;;53.70;;
52768;SDS011;40471;44.534;18.644;2024-02-21T03:09:51;75.43;;;52.70;;
52768;SDS011;40471;44.534;18.644;2024-02-21T03:12:18;83.28;;;54.72;;
52768;SDS011;40471;44.534;18.644;2024-02-21T03:14:52;86.78;;;53.40;;
52768;SDS011;40471;44.534;18.644;2024-02-21T03:17:18;89.68;;;55.10;;
52768;SDS011;40471;44.534;18.644;2024-02-21T03:19:44;95.50;;;54.47;;
52768;SDS011;40471;44.534;18.644;2024-02-21T03:22:10;94.17;;;56.53;;
52768;SDS011;40471;44.534;18.644;2024-02-21T03:24:36;76.67;;;53.40;;
52768;SDS011;40471;44.534;18.644;2024-02-21T03:27:01;90.73;;;52.53;;
52768;SDS011;40471;44.534;18.644;2024-02-21T03:29:27;86.43;;;56.10;;
52768;SDS011;40471;44.534;18.644;2024-02-21T03:31:53;85.47;;;50.17;;
52768;SDS011;40471;44.534;18.644;2024-02-21T03:34:19;84.93;;;52.38;;
52768;SDS011;40471;44.534;18.644;2024-02-21T03:36:45;80.57;;;52.60;;
52768;SDS011;40471;44.534;18.644;2024-02-21T03:39:11;96.90;;;51.37;;
52768;SDS011;40471;44.534;18.644;2024-02-21T03:41:36;90.13;;;54.57;;
52768;SDS011;40471;44.534;18.644;2024-02-21T03:44:02;95.63;;;55.40;;
52768;SDS011;40471;44.534;18.644;2024-02-21T03:46:28;101.03;;;53.43;;
52768;SDS011;40471;44.534;18.644;2024-02-21T03:48:54;89.47;;;51.03;;
52768;SDS011;40471;44.534;18.644;2024-02-21T03:51:19;98.73;;;58.37;;
52768;SDS011;40471;44.534;18.644;2024-02-21T03:53:45;88.90;;;54.10;;
52768;SDS011;40471;44.534;18.644;2024-02-21T03:56:11;81.13;;;53.60;;
52768;SDS011;40471;44.534;18.644;2024-02-21T03:58:36;107.30;;;64.67;;
52768;SDS011;40471;44.534;18.644;2024-02-21T04:01:02;93.03;;;56.40;;
52768;SDS011;40471;44.534;18.644;2024-02-21T04:03:29;93.60;;;60.67;;
52768;SDS011;40471;44.534;18.644;2024-02-21T04:05:55;105.22;;;64.38;;
52768;SDS011;40471;44.534;18.644;2024-02-21T04:08:22;113.40;;;74.97;;
52768;SDS011;40471;44.534;18.644;2024-02-21T04:10:48;110.28;;;71.28;;
52768;SDS011;40471;44.534;18.644;2024-02-21T04:13:14;111.33;;;66.07;;
52768;SDS011;40471;44.534;18.644;2024-02-21T04:15:39;106.27;;;66.87;;
52768;SDS011;40471;44.534;18.644;2024-02-21T04:18:05;105.57;;;63.60;;
52768;SDS011;40471;44.534;18.644;2024-02-21T04:20:31;112.37;;;65.20;;
52768;SDS011;40471;44.534;18.644;2024-02-21T04:22:57;127.47;;;71.73;;
52768;SDS011;40471;44.534;18.644;2024-02-21T04:25:23;129.40;;;69.17;;
52768;SDS011;40471;44.534;18.644;2024-02-21T04:27:49;112.90;;;64.63;;
52768;SDS011;40471;44.534;18.644;2024-02-21T04:30:15;97.50;;;59.37;;
52768;SDS011;40471;44.534;18.644;2024-02-21T04:32:41;94.63;;;58.87;;
52768;SDS011;40471;44.534;18.644;2024-02-21T04:35:07;111.55;;;66.78;;
52768;SDS011;40471;44.534;18.644;2024-02-21T04:37:33;134.52;;;74.60;;
52768;SDS011;40471;44.534;18.644;2024-02-21T04:39:59;170.00;;;93.70;;
52768;SDS011;40471;44.534;18.644;2024-02-21T04:42:24;142.93;;;92.97;;
52768;SDS011;40471;44.534;18.644;2024-02-21T04:44:50;138.00;;;77.23;;
52768;SDS011;40471;44.534;18.644;2024-02-21T04:47:16;135.87;;;80.17;;
52768;SDS011;40471;44.534;18.644;2024-02-21T04:49:42;124.67;;;75.30;;
52768;SDS011;40471;44.534;18.644;2024-02-21T04:52:07;139.37;;;77.07;;
52768;SDS011;40471;44.534;18.644;2024-02-21T04:54:33;112.10;;;65.90;;
52768;SDS011;40471;44.534;18.644;2024-02-21T04:57:00;109.68;;;62.75;;
52768;SDS011;40471;44.534;18.644;2024-02-21T04:59:26;101.83;;;62.87;;
52768;SDS011;40471;44.534;18.644;2024-02-21T05:01:52;103.30;;;63.13;;
52768;SDS011;40471;44.534;18.644;2024-02-21T05:04:18;113.40;;;68.83;;
52768;SDS011;40471;44.534;18.644;2024-02-21T05:06:43;129.57;;;76.17;;
52768;SDS011;40471;44.534;18.644;2024-02-21T05:09:09;102.37;;;62.73;;
52768;SDS011;40471;44.534;18.644;2024-02-21T05:11:36;99.45;;;64.53;;
52768;SDS011;40471;44.534;18.644;2024-02-21T05:14:02;93.03;;;56.80;;
52768;SDS011;40471;44.534;18.644;2024-02-21T05:16:29;95.30;;;64.97;;
52768;SDS011;40471;44.534;18.644;2024-02-21T05:18:54;98.00;;;67.70;;
52768;SDS011;40471;44.534;18.644;2024-02-21T05:21:22;109.55;;;72.35;;
52768;SDS011;40471;44.534;18.644;2024-02-21T05:23:50;111.47;;;68.90;;
52768;SDS011;40471;44.534;18.644;2024-02-21T05:26:20;107.80;;;64.93;;
52768;SDS011;40471;44.534;18.644;2024-02-21T05:28:47;109.82;;;64.85;;
52768;SDS011;40471;44.534;18.644;2024-02-21T05:31:13;93.50;;;63.77;;
52768;SDS011;40471;44.534;18.644;2024-02-21T05:33:39;121.33;;;76.67;;
52768;SDS011;40471;44.534;18.644;2024-02-21T05:36:05;188.77;;;107.27;;
52768;SDS011;40471;44.534;18.644;2024-02-21T05:38:32;202.40;;;112.50;;
52768;SDS011;40471;44.534;18.644;2024-02-21T05:40:57;133.43;;;79.83;;
52768;SDS011;40471;44.534;18.644;2024-02-21T05:43:23;93.23;;;59.00;;
52768;SDS011;40471;44.534;18.644;2024-02-21T05:45:49;87.47;;;56.07;;
52768;SDS011;40471;44.534;18.644;2024-02-21T05:48:14;99.63;;;63.07;;
52768;SDS011;40471;44.534;18.644;2024-02-21T05:50:40;113.30;;;73.00;;
52768;SDS011;40471;44.534;18.644;2024-02-21T05:53:06;112.17;;;69.23;;
52768;SDS011;40471;44.534;18.644;2024-02-21T05:55:32;128.03;;;83.67;;
52768;SDS011;40471;44.534;18.644;2024-02-21T05:57:58;133.60;;;88.37;;
52768;SDS011;40471;44.534;18.644;2024-02-21T06:00:23;141.20;;;80.40;;
52768;SDS011;40471;44.534;18.644;2024-02-21T06:02:49;130.83;;;75.77;;
52768;SDS011;40471;44.534;18.644;2024-02-21T06:05:15;131.20;;;84.17;;
52768;SDS011;40471;44.534;18.644;2024-02-21T06:07:40;142.53;;;85.97;;
52768;SDS011;40471;44.534;18.644;2024-02-21T06:10:06;138.97;;;78.07;;
52768;SDS011;40471;44.534;18.644;2024-02-21T06:14:58;92.22;;;58.53;;
52768;SDS011;40471;44.534;18.644;2024-02-21T06:17:24;116.43;;;64.77;;
52768;SDS011;40471;44.534;18.644;2024-02-21T06:19:50;131.20;;;85.03;;
52768;SDS011;40471;44.534;18.644;2024-02-21T06:22:15;181.03;;;96.27;;
52768;SDS011;40471;44.534;18.644;2024-02-21T06:24:41;124.73;;;78.70;;
52768;SDS011;40471;44.534;18.644;2024-02-21T06:27:08;117.30;;;69.50;;
52768;SDS011;40471;44.534;18.644;2024-02-21T06:29:33;117.53;;;71.93;;
52768;SDS011;40471;44.534;18.644;2024-02-21T06:32:00;195.32;;;105.10;;
52768;SDS011;40471;44.534;18.644;2024-02-21T06:34:26;138.07;;;83.37;;
52768;SDS011;40471;44.534;18.644;2024-02-21T06:36:51;112.53;;;64.27;;
52768;SDS011;40471;44.534;18.644;2024-02-21T06:39:17;104.55;;;65.55;;
52768;SDS011;40471;44.534;18.644;2024-02-21T06:41:43;100.87;;;63.23;;
52768;SDS011;40471;44.534;18.644;2024-02-21T06:44:09;115.60;;;65.47;;
52768;SDS011;40471;44.534;18.644;2024-02-21T06:46:35;150.80;;;85.33;;
52768;SDS011;40471;44.534;18.644;2024-02-21T06:49:01;127.03;;;79.40;;
52768;SDS011;40471;44.534;18.644;2024-02-21T06:51:30;120.43;;;74.18;;
52768;SDS011;40471;44.534;18.644;2024-02-21T06:53:55;107.20;;;65.90;;
52768;SDS011;40471;44.534;18.644;2024-02-21T06:56:23;105.13;;;69.13;;
52768;SDS011;40471;44.534;18.644;2024-02-21T06:58:54;93.38;;;61.15;;
52768;SDS011;40471;44.534;18.644;2024-02-21T07:01:20;107.55;;;67.38;;
52768;SDS011;40471;44.534;18.644;2024-02-21T07:03:46;101.67;;;70.70;;
52768;SDS011;40471;44.534;18.644;2024-02-21T07:06:11;115.30;;;74.07;;
52768;SDS011;40471;44.534;18.644;2024-02-21T07:08:37;118.20;;;78.60;;
52768;SDS011;40471;44.534;18.644;2024-02-21T07:11:04;114.50;;;85.10;;
52768;SDS011;40471;44.534;18.644;2024-02-21T07:13:30;124.03;;;81.40;;
52768;SDS011;40471;44.534;18.644;2024-02-21T07:15:56;127.13;;;79.27;;
52768;SDS011;40471;44.534;18.644;2024-02-21T07:18:21;107.17;;;74.57;;
52768;SDS011;40471;44.534;18.644;2024-02-21T07:20:47;104.53;;;72.03;;
52768;SDS011;40471;44.534;18.644;2024-02-21T07:23:13;107.37;;;68.83;;
52768;SDS011;40471;44.534;18.644;2024-02-21T07:25:38;105.30;;;72.30;;
52768;SDS011;40471;44.534;18.644;2024-02-21T07:28:05;106.90;;;67.60;;
52768;SDS011;40471;44.534;18.644;2024-02-21T07:32:57;87.85;;;57.33;;
52768;SDS011;40471;44.534;18.644;2024-02-21T07:35:23;88.30;;;59.80;;
52768;SDS011;40471;44.534;18.644;2024-02-21T07:37:49;88.72;;;58.92;;
52768;SDS011;40471;44.534;18.644;2024-02-21T07:40:15;99.20;;;53.87;;
52768;SDS011;40471;44.534;18.644;2024-02-21T07:45:08;110.60;;;67.10;;
52768;SDS011;40471;44.534;18.644;2024-02-21T07:47:35;135.60;;;76.18;;
52768;SDS011;40471;44.534;18.644;2024-02-21T07:50:02;138.35;;;75.50;;
52768;SDS011;40471;44.534;18.644;2024-02-21T07:54:53;158.57;;;84.95;;
52768;SDS011;40471;44.534;18.644;2024-02-21T07:57:19;132.53;;;76.40;;
52768;SDS011;40471;44.534;18.644;2024-02-21T07:59:45;137.47;;;68.27;;
52768;SDS011;40471;44.534;18.644;2024-02-21T08:02:13;105.75;;;55.45;;
52768;SDS011;40471;44.534;18.644;2024-02-21T08:04:39;103.35;;;51.63;;
52768;SDS011;40471;44.534;18.644;2024-02-21T08:07:05;99.07;;;52.93;;
52768;SDS011;40471;44.534;18.644;2024-02-21T08:09:31;99.07;;;54.93;;
52768;SDS011;40471;44.534;18.644;2024-02-21T08:11:56;108.40;;;54.70;;
52768;SDS011;40471;44.534;18.644;2024-02-21T08:14:22;90.93;;;53.08;;
52768;SDS011;40471;44.534;18.644;2024-02-21T08:16:49;111.10;;;51.13;;
52768;SDS011;40471;44.534;18.644;2024-02-21T08:19:16;94.45;;;49.70;;
52768;SDS011;40471;44.534;18.644;2024-02-21T08:21:42;101.83;;;49.13;;
52768;SDS011;40471;44.534;18.644;2024-02-21T08:24:08;80.37;;;45.17;;
52768;SDS011;40471;44.534;18.644;2024-02-21T08:26:33;105.73;;;46.07;;
52768;SDS011;40471;44.534;18.644;2024-02-21T08:29:01;81.55;;;43.72;;
52768;SDS011;40471;44.534;18.644;2024-02-21T08:31:27;95.85;;;43.85;;
52768;SDS011;40471;44.534;18.644;2024-02-21T08:33:59;63.88;;;31.92;;
52768;SDS011;40471;44.534;18.644;2024-02-21T08:36:32;52.63;;;29.40;;
52768;SDS011;40471;44.534;18.644;2024-02-21T08:38:59;79.60;;;37.30;;
52768;SDS011;40471;44.534;18.644;2024-02-21T08:41:26;70.72;;;41.08;;
52768;SDS011;40471;44.534;18.644;2024-02-21T08:43:52;81.50;;;38.00;;
52768;SDS011;40471;44.534;18.644;2024-02-21T08:46:21;77.13;;;42.17;;
52768;SDS011;40471;44.534;18.644;2024-02-21T08:48:47;71.53;;;34.22;;
52768;SDS011;40471;44.534;18.644;2024-02-21T08:51:13;76.23;;;42.67;;
52768;SDS011;40471;44.534;18.644;2024-02-21T08:53:39;65.38;;;34.08;;
52768;SDS011;40471;44.534;18.644;2024-02-21T08:56:05;54.23;;;32.50;;
52768;SDS011;40471;44.534;18.644;2024-02-21T08:58:32;58.45;;;30.23;;
52768;SDS011;40471;44.534;18.644;2024-02-21T09:01:00;63.65;;;38.97;;
52768;SDS011;40471;44.534;18.644;2024-02-21T09:03:30;60.38;;;38.58;;
52768;SDS011;40471;44.534;18.644;2024-02-21T09:05:57;62.20;;;33.33;;
52768;SDS011;40471;44.534;18.644;2024-02-21T09:08:23;50.25;;;28.33;;
52768;SDS011;40471;44.534;18.644;2024-02-21T09:10:49;37.00;;;18.95;;
52768;SDS011;40471;44.534;18.644;2024-02-21T09:13:15;51.40;;;31.65;;
52768;SDS011;40471;44.534;18.644;2024-02-21T09:15:42;44.77;;;22.53;;
52768;SDS011;40471;44.534;18.644;2024-02-21T09:18:08;30.77;;;15.55;;
52768;SDS011;40471;44.534;18.644;2024-02-21T09:20:34;23.40;;;14.52;;
52768;SDS011;40471;44.534;18.644;2024-02-21T09:23:00;33.33;;;15.27;;
52768;SDS011;40471;44.534;18.644;2024-02-21T09:25:26;22.37;;;10.07;;
52768;SDS011;40471;44.534;18.644;2024-02-21T09:27:53;29.37;;;12.57;;
52768;SDS011;40471;44.534;18.644;2024-02-21T09:30:20;17.90;;;9.20;;
52768;SDS011;40471;44.534;18.644;2024-02-21T09:32:46;26.35;;;9.32;;
52768;SDS011;40471;44.534;18.644;2024-02-21T09:37:38;12.88;;;4.60;;
52768;SDS011;40471;44.534;18.644;2024-02-21T09:40:05;6.68;;;3.65;;
52768;SDS011;40471;44.534;18.644;2024-02-21T09:42:40;10.10;;;3.88;;
52768;SDS011;40471;44.534;18.644;2024-02-21T09:45:07;12.45;;;4.25;;
52768;SDS011;40471;44.534;18.644;2024-02-21T09:47:44;4.97;;;2.45;;
52768;SDS011;40471;44.534;18.644;2024-02-21T09:50:36;9.80;;;3.90;;
52768;SDS011;40471;44.534;18.644;2024-02-21T09:53:06;10.15;;;4.18;;
52768;SDS011;40471;44.534;18.644;2024-02-21T09:55:35;8.15;;;3.17;;
52768;SDS011;40471;44.534;18.644;2024-02-21T09:58:05;3.92;;;1.88;;
52768;SDS011;40471;44.534;18.644;2024-02-21T10:00:32;11.40;;;5.18;;
52768;SDS011;40471;44.534;18.644;2024-02-21T10:02:58;14.50;;;3.20;;
52768;SDS011;40471;44.534;18.644;2024-02-21T10:05:24;14.95;;;6.10;;
52768;SDS011;40471;44.534;18.644;2024-02-21T10:07:50;6.18;;;2.85;;
52768;SDS011;40471;44.534;18.644;2024-02-21T10:10:16;11.77;;;2.67;;
52768;SDS011;40471;44.534;18.644;2024-02-21T10:12:49;8.57;;;4.07;;
52768;SDS011;40471;44.534;18.644;2024-02-21T10:15:19;41.42;;;10.18;;
52768;SDS011;40471;44.534;18.644;2024-02-21T10:17:49;43.45;;;19.50;;
52768;SDS011;40471;44.534;18.644;2024-02-21T10:20:22;34.45;;;16.33;;
52768;SDS011;40471;44.534;18.644;2024-02-21T10:22:48;24.80;;;12.37;;
52768;SDS011;40471;44.534;18.644;2024-02-21T10:25:14;33.70;;;15.90;;
52768;SDS011;40471;44.534;18.644;2024-02-21T10:27:40;31.23;;;13.70;;
52768;SDS011;40471;44.534;18.644;2024-02-21T10:30:15;30.35;;;13.00;;
52768;SDS011;40471;44.534;18.644;2024-02-21T10:32:51;23.38;;;12.63;;
52768;SDS011;40471;44.534;18.644;2024-02-21T10:35:31;35.72;;;19.23;;
52768;SDS011;40471;44.534;18.644;2024-02-21T10:37:58;22.85;;;13.82;;
52768;SDS011;40471;44.534;18.644;2024-02-21T10:40:25;28.90;;;12.80;;
52768;SDS011;40471;44.534;18.644;2024-02-21T10:43:01;24.05;;;11.63;;
52768;SDS011;40471;44.534;18.644;2024-02-21T10:45:29;24.85;;;10.65;;
52768;SDS011;40471;44.534;18.644;2024-02-21T10:48:09;27.52;;;9.65;;
52768;SDS011;40471;44.534;18.644;2024-02-21T10:50:42;53.90;;;14.70;;
52768;SDS011;40471;44.534;18.644;2024-02-21T10:56:16;42.78;;;10.15;;
52768;SDS011;40471;44.534;18.644;2024-02-21T10:58:48;28.55;;;8.68;;
52768;SDS011;40471;44.534;18.644;2024-02-21T11:01:14;19.98;;;6.68;;
52768;SDS011;40471;44.534;18.644;2024-02-21T11:03:43;19.30;;;6.22;;
52768;SDS011;40471;44.534;18.644;2024-02-21T11:06:11;24.90;;;7.88;;
52768;SDS011;40471;44.534;18.644;2024-02-21T11:08:38;19.58;;;7.20;;
52768;SDS011;40471;44.534;18.644;2024-02-21T11:11:04;29.20;;;6.28;;
52768;SDS011;40471;44.534;18.644;2024-02-21T11:13:34;22.85;;;8.48;;
52768;SDS011;40471;44.534;18.644;2024-02-21T11:18:34;12.68;;;7.25;;
52768;SDS011;40471;44.534;18.644;2024-02-21T11:21:00;15.52;;;8.30;;
52768;SDS011;40471;44.534;18.644;2024-02-21T11:23:26;41.47;;;10.43;;
52768;SDS011;40471;44.534;18.644;2024-02-21T11:28:25;12.10;;;5.32;;
52768;SDS011;40471;44.534;18.644;2024-02-21T11:30:50;7.45;;;4.82;;
52768;SDS011;40471;44.534;18.644;2024-02-21T11:33:16;15.63;;;7.70;;
52768;SDS011;40471;44.534;18.644;2024-02-21T11:35:42;29.65;;;8.05;;
52768;SDS011;40471;44.534;18.644;2024-02-21T11:38:09;9.43;;;4.82;;
52768;SDS011;40471;44.534;18.644;2024-02-21T11:40:45;23.08;;;6.13;;
52768;SDS011;40471;44.534;18.644;2024-02-21T11:43:12;16.90;;;5.43;;
52768;SDS011;40471;44.534;18.644;2024-02-21T11:45:38;6.32;;;2.83;;
52768;SDS011;40471;44.534;18.644;2024-02-21T11:50:36;5.80;;;2.70;;
52768;SDS011;40471;44.534;18.644;2024-02-21T11:53:04;15.63;;;4.22;;
52768;SDS011;40471;44.534;18.644;2024-02-21T11:55:30;12.57;;;4.60;;
52768;SDS011;40471;44.534;18.644;2024-02-21T11:57:56;7.80;;;4.22;;
52768;SDS011;40471;44.534;18.644;2024-02-21T12:00:22;5.97;;;3.20;;
52768;SDS011;40471;44.534;18.644;2024-02-21T12:02:49;7.97;;;3.95;;
52768;SDS011;40471;44.534;18.644;2024-02-21T12:07:43;9.20;;;3.55;;
52768;SDS011;40471;44.534;18.644;2024-02-21T12:10:10;12.35;;;3.67;;
52768;SDS011;40471;44.534;18.644;2024-02-21T12:12:37;5.78;;;2.85;;
52768;SDS011;40471;44.534;18.644;2024-02-21T12:15:07;10.90;;;5.35;;
52768;SDS011;40471;44.534;18.644;2024-02-21T12:17:33;9.10;;;3.95;;
52768;SDS011;40471;44.534;18.644;2024-02-21T12:20:03;11.80;;;4.88;;
52768;SDS011;40471;44.534;18.644;2024-02-21T12:22:39;3.43;;;3.13;;
52768;SDS011;40471;44.534;18.644;2024-02-21T12:25:16;13.05;;;4.85;;
52768;SDS011;40471;44.534;18.644;2024-02-21T12:27:45;12.93;;;6.65;;
52768;SDS011;40471;44.534;18.644;2024-02-21T12:30:14;12.63;;;5.07;;
52768;SDS011;40471;44.534;18.644;2024-02-21T12:32:43;40.67;;;8.60;;
52768;SDS011;40471;44.534;18.644;2024-02-21T12:35:09;22.33;;;9.75;;
52768;SDS011;40471;44.534;18.644;2024-02-21T12:37:35;39.65;;;9.68;;
52768;SDS011;40471;44.534;18.644;2024-02-21T12:40:00;15.88;;;7.85;;
52768;SDS011;40471;44.534;18.644;2024-02-21T12:42:31;19.27;;;6.70;;
52768;SDS011;40471;44.534;18.644;2024-02-21T12:44:58;33.42;;;12.32;;
52768;SDS011;40471;44.534;18.644;2024-02-21T12:47:25;26.35;;;9.40;;
52768;SDS011;40471;44.534;18.644;2024-02-21T12:49:52;22.08;;;9.82;;
52768;SDS011;40471;44.534;18.644;2024-02-21T12:54:44;13.38;;;7.45;;
52768;SDS011;40471;44.534;18.644;2024-02-21T12:57:10;29.10;;;9.00;;
52768;SDS011;40471;44.534;18.644;2024-02-21T12:59:35;11.68;;;7.03;;
52768;SDS011;40471;44.534;18.644;2024-02-21T13:02:02;15.48;;;7.30;;
52768;SDS011;40471;44.534;18.644;2024-02-21T13:04:28;14.80;;;8.68;;
52768;SDS011;40471;44.534;18.644;2024-02-21T13:06:54;24.17;;;10.80;;
52768;SDS011;40471;44.534;18.644;2024-02-21T13:09:40;21.38;;;7.50;;
52768;SDS011;40471;44.534;18.644;2024-02-21T13:12:09;19.23;;;4.80;;
52768;SDS011;40471;44.534;18.644;2024-02-21T13:14:35;24.33;;;5.93;;
52768;SDS011;40471;44.534;18.644;2024-02-21T13:17:03;6.88;;;3.80;;
52768;SDS011;40471;44.534;18.644;2024-02-21T13:19:31;23.45;;;9.43;;
52768;SDS011;40471;44.534;18.644;2024-02-21T13:22:07;13.90;;;8.27;;
52768;SDS011;40471;44.534;18.644;2024-02-21T13:24:33;32.13;;;9.05;;
52768;SDS011;40471;44.534;18.644;2024-02-21T13:26:59;25.40;;;10.20;;
52768;SDS011;40471;44.534;18.644;2024-02-21T13:29:24;34.83;;;10.30;;
52768;SDS011;40471;44.534;18.644;2024-02-21T13:31:50;40.42;;;13.02;;
52768;SDS011;40471;44.534;18.644;2024-02-21T13:34:16;10.90;;;5.50;;
52768;SDS011;40471;44.534;18.644;2024-02-21T13:36:43;7.28;;;3.42;;
52768;SDS011;40471;44.534;18.644;2024-02-21T13:39:10;10.75;;;2.70;;
52768;SDS011;40471;44.534;18.644;2024-02-21T13:41:40;6.97;;;2.75;;
52768;SDS011;40471;44.534;18.644;2024-02-21T13:44:07;7.85;;;3.75;;
52768;SDS011;40471;44.534;18.644;2024-02-21T13:46:34;16.88;;;5.20;;
52768;SDS011;40471;44.534;18.644;2024-02-21T13:49:03;25.35;;;12.40;;
52768;SDS011;40471;44.534;18.644;2024-02-21T13:51:33;39.17;;;18.05;;
52768;SDS011;40471;44.534;18.644;2024-02-21T13:54:02;28.98;;;11.20;;
52768;SDS011;40471;44.534;18.644;2024-02-21T13:56:29;26.80;;;9.25;;
52768;SDS011;40471;44.534;18.644;2024-02-21T13:58:57;15.00;;;7.43;;
52768;SDS011;40471;44.534;18.644;2024-02-21T14:01:27;24.42;;;8.52;;
52768;SDS011;40471;44.534;18.644;2024-02-21T14:03:53;34.58;;;11.10;;
52768;SDS011;40471;44.534;18.644;2024-02-21T14:06:19;8.45;;;4.45;;
52768;SDS011;40471;44.534;18.644;2024-02-21T14:08:45;10.00;;;2.63;;
52768;SDS011;40471;44.534;18.644;2024-02-21T14:11:10;28.97;;;7.40;;
52768;SDS011;40471;44.534;18.644;2024-02-21T14:13:36;32.93;;;7.17;;
52768;SDS011;40471;44.534;18.644;2024-02-21T14:16:02;20.35;;;7.85;;
52768;SDS011;40471;44.534;18.644;2024-02-21T14:18:33;14.65;;;5.75;;
52768;SDS011;40471;44.534;18.644;2024-02-21T14:21:02;14.90;;;5.70;;
52768;SDS011;40471;44.534;18.644;2024-02-21T14:23:28;30.25;;;6.35;;
52768;SDS011;40471;44.534;18.644;2024-02-21T14:25:54;14.70;;;10.17;;
52768;SDS011;40471;44.534;18.644;2024-02-21T14:28:20;14.83;;;5.67;;
52768;SDS011;40471;44.534;18.644;2024-02-21T14:30:46;10.80;;;5.20;;
52768;SDS011;40471;44.534;18.644;2024-02-21T14:33:13;9.07;;;3.38;;
52768;SDS011;40471;44.534;18.644;2024-02-21T14:35:38;7.97;;;5.10;;